createdAt,value
2023-04-21T00:00:16.014Z,36.80
2023-04-21T00:03:04.129Z,29.40
2023-04-21T00:05:33.452Z,30.10
2023-04-21T00:08:01.304Z,32.50
2023-04-21T00:10:29.051Z,32.30
2023-04-21T00:12:56.812Z,28.60
2023-04-21T00:15:24.764Z,33.30
2023-04-21T00:17:52.552Z,30.30
2023-04-21T00:20:20.506Z,27.90
2023-04-21T00:22:48.502Z,30.10
2023-04-21T00:25:16.331Z,40.40
2023-04-21T00:27:44.149Z,32.80
2023-04-21T00:30:12.131Z,28.00
2023-04-21T00:32:40.077Z,29.10
2023-04-21T00:35:08.254Z,27.70
2023-04-21T00:37:36.430Z,28.80
2023-04-21T00:40:05.892Z,26.00
2023-04-21T00:42:33.651Z,30.50
2023-04-21T00:45:01.412Z,28.40
2023-04-21T00:47:29.275Z,29.60
2023-04-21T00:50:00.224Z,34.40
2023-04-21T00:52:28.879Z,48.90
2023-04-21T00:54:57.397Z,41.30
2023-04-21T00:57:25.351Z,44.50
2023-04-21T00:59:53.143Z,41.70
2023-04-21T01:02:22.936Z,42.50
2023-04-21T01:04:51.127Z,51.20
2023-04-21T01:07:19.013Z,62.70
2023-04-21T01:09:46.804Z,66.00
2023-04-21T01:12:14.731Z,47.30
2023-04-21T01:14:42.538Z,36.00
2023-04-21T01:17:10.775Z,44.30
2023-04-21T01:19:43.137Z,43.60
2023-04-21T01:22:12.895Z,43.60
2023-04-21T01:24:43.291Z,40.00
2023-04-21T01:27:13.421Z,40.60
2023-04-21T01:29:43.181Z,39.00
2023-04-21T01:32:20.113Z,34.50
2023-04-21T01:34:49.053Z,33.50
2023-04-21T01:37:21.087Z,32.00
2023-04-21T01:39:54.492Z,31.70
2023-04-21T01:42:24.931Z,29.90
2023-04-21T01:44:54.105Z,33.90
2023-04-21T01:47:23.995Z,33.80
2023-04-21T01:49:52.410Z,33.00
2023-04-21T01:52:21.013Z,27.60
2023-04-21T01:54:49.155Z,31.40
2023-04-21T01:57:18.382Z,32.90
2023-04-21T01:59:46.463Z,34.80
2023-04-21T02:02:14.457Z,34.50
2023-04-21T02:04:42.720Z,29.90
2023-04-21T02:07:10.541Z,28.10
2023-04-21T02:09:38.352Z,32.90
2023-04-21T02:12:06.406Z,31.60
2023-04-21T02:14:34.115Z,32.60
2023-04-21T02:17:03.747Z,32.20
2023-04-21T02:19:31.796Z,34.40
2023-04-21T02:21:59.655Z,29.60
2023-04-21T02:24:27.433Z,27.70
2023-04-21T02:26:55.511Z,32.30
2023-04-21T02:29:23.243Z,30.80
2023-04-21T02:32:03.021Z,28.10
2023-04-21T02:34:33.300Z,27.00
2023-04-21T02:37:01.476Z,30.30
2023-04-21T02:39:29.854Z,27.20
2023-04-21T02:41:58.792Z,30.00
2023-04-21T02:44:26.531Z,25.60
2023-04-21T02:46:54.610Z,25.30
2023-04-21T02:49:22.494Z,28.10
2023-04-21T02:51:50.321Z,29.70
2023-04-21T02:54:18.131Z,25.50
2023-04-21T02:56:46.396Z,31.10
2023-04-21T02:59:16.682Z,28.40
2023-04-21T03:01:44.634Z,28.30
2023-04-21T03:04:13.580Z,27.70
2023-04-21T03:06:41.417Z,24.10
2023-04-21T03:09:09.231Z,29.00
2023-04-21T03:11:36.968Z,28.60
2023-04-21T03:14:04.722Z,24.20
2023-04-21T03:16:33.080Z,27.10
2023-04-21T03:19:01.607Z,30.80
2023-04-21T03:21:29.366Z,24.80
2023-04-21T03:23:57.131Z,27.50
2023-04-21T03:26:25.357Z,25.30
2023-04-21T03:28:53.561Z,27.10
2023-04-21T03:31:21.746Z,25.10
2023-04-21T03:33:49.620Z,27.30
2023-04-21T03:36:17.346Z,27.70
2023-04-21T03:38:45.098Z,22.80
2023-04-21T03:41:13.419Z,25.20
2023-04-21T03:43:41.769Z,25.70
2023-04-21T03:46:18.526Z,26.30
2023-04-21T03:48:47.250Z,26.60
2023-04-21T03:51:15.339Z,29.30
2023-04-21T03:53:43.953Z,26.70
2023-04-21T03:56:11.692Z,23.30
2023-04-21T03:58:39.432Z,31.10
2023-04-21T04:01:07.750Z,22.60
2023-04-21T04:03:35.879Z,25.40
2023-04-21T04:06:04.428Z,26.30
2023-04-21T04:08:32.274Z,30.40
2023-04-21T04:10:59.987Z,24.50
2023-04-21T04:13:29.044Z,30.70
2023-04-21T04:15:58.720Z,27.10
2023-04-21T04:18:27.185Z,23.80
2023-04-21T04:20:54.956Z,25.70
2023-04-21T04:23:22.682Z,28.40
2023-04-21T04:25:51.969Z,23.90
2023-04-21T04:28:19.715Z,24.40
2023-04-21T04:30:47.430Z,24.90
2023-04-21T04:33:16.058Z,22.90
2023-04-21T04:35:43.812Z,25.00
2023-04-21T04:38:12.813Z,29.20
2023-04-21T04:40:40.554Z,27.00
2023-04-21T04:43:10.700Z,24.80
2023-04-21T04:45:38.984Z,24.60
2023-04-21T04:48:07.495Z,25.30
2023-04-21T04:50:35.528Z,41.50
2023-04-21T04:53:03.325Z,26.70
2023-04-21T04:55:31.045Z,26.70
2023-04-21T04:57:58.754Z,24.40
2023-04-21T05:00:26.967Z,24.40
2023-04-21T05:02:55.930Z,21.50
2023-04-21T05:05:24.966Z,25.90
2023-04-21T05:07:52.839Z,27.60
2023-04-21T05:10:20.608Z,24.70
2023-04-21T05:12:48.369Z,23.40
2023-04-21T05:15:18.305Z,25.30
2023-04-21T05:17:46.557Z,21.30
2023-04-21T05:20:14.531Z,24.10
2023-04-21T05:22:42.476Z,21.80
2023-04-21T05:25:12.554Z,25.40
2023-04-21T05:27:41.013Z,23.20
2023-04-21T05:30:09.563Z,24.30
2023-04-21T05:32:38.001Z,23.70
2023-04-21T05:35:06.322Z,23.60
2023-04-21T05:37:34.129Z,25.90
2023-04-21T05:40:01.960Z,26.10
2023-04-21T05:42:29.612Z,26.60
2023-04-21T05:44:58.279Z,22.70
2023-04-21T05:47:26.697Z,27.40
2023-04-21T05:49:54.470Z,23.10
2023-04-21T05:52:22.265Z,22.00
2023-04-21T05:54:50.196Z,24.30
2023-04-21T05:57:18.017Z,21.20
2023-04-21T05:59:46.184Z,25.40
2023-04-21T06:02:14.571Z,20.80
2023-04-21T06:04:42.676Z,25.50
2023-04-21T06:07:13.711Z,24.70
2023-04-21T06:09:41.528Z,22.50
2023-04-21T06:12:09.248Z,25.20
2023-04-21T06:14:37.179Z,23.00
2023-04-21T06:17:05.444Z,22.70
2023-04-21T06:19:38.334Z,22.30
2023-04-21T06:22:06.184Z,24.80
2023-04-21T06:24:33.937Z,22.40
2023-04-21T06:27:02.003Z,21.70
2023-04-21T06:29:29.700Z,22.20
2023-04-21T06:31:58.084Z,19.50
2023-04-21T06:34:25.846Z,23.00
2023-04-21T06:36:53.581Z,20.40
2023-04-21T06:39:21.520Z,20.60
2023-04-21T06:41:49.296Z,23.30
2023-04-21T06:44:17.180Z,23.00
2023-04-21T06:46:45.823Z,23.20
2023-04-21T06:49:13.594Z,20.40
2023-04-21T06:51:41.345Z,20.70
2023-04-21T06:54:09.065Z,17.60
2023-04-21T06:56:36.971Z,18.90
2023-04-21T06:59:04.691Z,19.70
2023-04-21T07:01:33.167Z,18.70
2023-04-21T07:04:01.570Z,21.10
2023-04-21T07:06:29.372Z,21.50
2023-04-21T07:08:57.202Z,19.10
2023-04-21T07:11:25.094Z,21.10
2023-04-21T07:13:52.854Z,21.60
2023-04-21T07:16:21.124Z,22.50
2023-04-21T07:18:48.890Z,21.20
2023-04-21T07:21:16.647Z,17.60
2023-04-21T07:23:44.406Z,19.50
2023-04-21T07:26:12.260Z,18.20
2023-04-21T07:28:43.083Z,21.60
2023-04-21T07:31:11.620Z,17.00
2023-04-21T07:33:39.430Z,17.40
2023-04-21T07:36:07.416Z,19.40
2023-04-21T07:38:35.270Z,15.20
2023-04-21T07:41:03.013Z,15.40
2023-04-21T07:43:31.816Z,16.70
2023-04-21T07:46:00.157Z,16.20
2023-04-21T07:48:27.972Z,16.10
2023-04-21T07:50:55.810Z,16.50
2023-04-21T07:53:23.616Z,15.50
2023-04-21T07:55:51.368Z,18.00
2023-04-21T07:58:19.103Z,16.90
2023-04-21T08:00:47.691Z,17.00
2023-04-21T08:03:16.065Z,17.00
2023-04-21T08:05:44.153Z,18.20
2023-04-21T08:08:12.258Z,15.00
2023-04-21T08:10:40.175Z,16.90
2023-04-21T08:13:08.078Z,17.50
2023-04-21T08:15:36.482Z,16.10
2023-04-21T08:18:04.825Z,18.50
2023-04-21T08:20:32.793Z,17.50
2023-04-21T08:23:00.874Z,16.30
2023-04-21T08:25:28.960Z,16.50
2023-04-21T08:27:56.798Z,15.40
2023-04-21T08:30:27.524Z,18.00
2023-04-21T08:32:55.515Z,15.50
2023-04-21T08:35:24.037Z,15.70
2023-04-21T08:37:53.380Z,13.70
2023-04-21T08:40:21.470Z,14.50
2023-04-21T08:42:49.283Z,18.00
2023-04-21T08:45:17.829Z,17.00
2023-04-21T08:47:47.550Z,16.60
2023-04-21T08:50:15.487Z,15.40
2023-04-21T08:52:43.262Z,18.20
2023-04-21T08:55:11.699Z,15.30
2023-04-21T08:57:39.384Z,18.00
2023-04-21T09:00:09.648Z,14.30
2023-04-21T09:03:00.050Z,14.70
2023-04-21T09:05:30.861Z,13.00
2023-04-21T09:08:12.686Z,10.80
2023-04-21T09:10:44.927Z,12.60
2023-04-21T09:13:14.133Z,18.20
2023-04-21T09:15:43.196Z,12.10
2023-04-21T09:18:15.804Z,12.00
2023-04-21T09:20:46.029Z,10.80
2023-04-21T09:23:14.067Z,14.20
2023-04-21T09:25:45.797Z,10.50
2023-04-21T09:28:14.786Z,11.60
2023-04-21T09:30:43.574Z,12.20
2023-04-21T09:33:29.509Z,9.40
2023-04-21T09:36:02.207Z,11.90
2023-04-21T09:38:30.533Z,11.20
2023-04-21T09:40:59.728Z,8.60
2023-04-21T09:43:27.541Z,9.00
2023-04-21T09:45:56.621Z,9.10
2023-04-21T09:48:29.526Z,9.00
2023-04-21T09:53:29.782Z,11.50
2023-04-21T09:55:58.941Z,10.70
2023-04-21T09:58:34.115Z,10.10
2023-04-21T10:01:04.573Z,11.20
2023-04-21T10:03:33.519Z,8.60
2023-04-21T10:06:01.600Z,10.40
2023-04-21T10:08:29.854Z,8.50
2023-04-21T10:10:59.896Z,10.60
2023-04-21T10:13:27.959Z,9.50
2023-04-21T10:16:05.119Z,11.50
2023-04-21T10:18:43.618Z,10.10
2023-04-21T10:21:13.042Z,6.50
2023-04-21T10:23:45.720Z,12.60
2023-04-21T10:26:18.293Z,12.50
2023-04-21T10:29:01.222Z,9.80
2023-04-21T10:31:34.800Z,8.50
2023-04-21T10:34:08.859Z,8.40
2023-04-21T10:36:46.907Z,5.70
2023-04-21T10:39:33.632Z,9.60
2023-04-21T10:42:13.391Z,8.10
2023-04-21T10:44:45.560Z,9.20
2023-04-21T10:47:13.850Z,9.30
2023-04-21T10:49:42.413Z,7.20
2023-04-21T10:52:12.405Z,5.60
2023-04-21T10:55:04.321Z,7.50
2023-04-21T10:57:34.640Z,7.80
2023-04-21T11:00:06.985Z,9.70
2023-04-21T11:02:38.480Z,6.70
2023-04-21T11:05:09.536Z,5.10
2023-04-21T11:07:37.334Z,9.40
2023-04-21T11:10:10.161Z,8.40
2023-04-21T11:12:40.276Z,6.50
2023-04-21T11:15:14.441Z,5.80
2023-04-21T11:17:47.269Z,6.10
2023-04-21T11:20:15.872Z,9.10
2023-04-21T11:22:44.241Z,7.70
2023-04-21T11:25:18.859Z,7.40
2023-04-21T11:27:57.341Z,9.00
2023-04-21T11:30:35.611Z,8.60
2023-04-21T11:33:03.985Z,9.30
2023-04-21T11:35:32.364Z,8.50
2023-04-21T11:38:05.339Z,9.10
2023-04-21T11:40:53.996Z,6.00
2023-04-21T11:43:50.301Z,6.40
2023-04-21T11:46:24.272Z,9.40
2023-04-21T11:49:19.136Z,6.10
2023-04-21T11:51:46.957Z,7.40
2023-04-21T11:54:14.912Z,8.50
2023-04-21T11:56:47.437Z,11.40
2023-04-21T11:59:26.539Z,6.70
2023-04-21T12:01:55.469Z,8.50
2023-04-21T12:04:25.177Z,7.60
2023-04-21T12:07:01.759Z,9.40
2023-04-21T12:09:30.515Z,6.60
2023-04-21T12:11:59.093Z,7.80
2023-04-21T12:14:27.120Z,8.40
2023-04-21T12:16:57.305Z,9.60
2023-04-21T12:19:34.938Z,8.30
2023-04-21T12:22:11.497Z,10.80
2023-04-21T12:24:41.277Z,8.40
2023-04-21T12:27:09.853Z,9.50
2023-04-21T12:29:38.697Z,9.00
2023-04-21T12:32:07.230Z,8.80
2023-04-21T12:34:36.226Z,9.40
2023-04-21T12:37:05.041Z,8.70
2023-04-21T12:39:33.577Z,9.70
2023-04-21T12:42:02.162Z,7.80
2023-04-21T12:44:30.839Z,7.80
2023-04-21T12:46:58.775Z,6.20
2023-04-21T12:49:27.167Z,8.60
2023-04-21T12:51:56.091Z,8.80
2023-04-21T12:54:23.883Z,6.90
2023-04-21T12:56:51.706Z,7.50
2023-04-21T12:59:19.491Z,11.90
2023-04-21T13:01:47.388Z,9.20
2023-04-21T13:04:15.907Z,10.90
2023-04-21T13:06:44.316Z,8.90
2023-04-21T13:09:12.095Z,8.70
2023-04-21T13:11:39.990Z,8.10
2023-04-21T13:14:07.787Z,5.50
2023-04-21T13:16:35.993Z,10.00
2023-04-21T13:19:04.932Z,8.50
2023-04-21T13:21:33.291Z,10.30
2023-04-21T13:24:02.713Z,7.00
2023-04-21T13:26:33.813Z,7.60
2023-04-21T13:29:03.020Z,6.40
2023-04-21T13:31:32.636Z,11.40
2023-04-21T13:34:01.934Z,10.60
2023-04-21T13:36:30.391Z,11.30
2023-04-21T13:38:59.453Z,7.80
2023-04-21T13:41:27.230Z,7.70
2023-04-21T13:43:54.976Z,8.30
2023-04-21T13:46:23.033Z,9.00
2023-04-21T13:48:51.814Z,8.20
2023-04-21T13:51:20.752Z,9.10
2023-04-21T13:53:49.246Z,6.80
2023-04-21T13:56:17.760Z,8.60
2023-04-21T13:58:46.166Z,9.20
2023-04-21T14:01:14.741Z,10.50
2023-04-21T14:03:43.624Z,7.50
2023-04-21T14:06:11.806Z,12.70
2023-04-21T14:08:39.593Z,8.70
2023-04-21T14:11:07.414Z,12.10
2023-04-21T14:13:42.100Z,9.40
2023-04-21T14:16:20.039Z,6.20
2023-04-21T14:18:48.449Z,8.60
2023-04-21T14:21:16.291Z,8.50
2023-04-21T14:23:44.055Z,11.00
2023-04-21T14:26:11.932Z,10.30
2023-04-21T14:28:39.763Z,5.90
2023-04-21T14:31:08.002Z,7.30
2023-04-21T14:33:36.467Z,9.50
2023-04-21T14:36:04.363Z,10.30
2023-04-21T14:38:33.980Z,6.20
2023-04-21T14:41:02.222Z,13.50
2023-04-21T14:43:30.145Z,10.00
2023-04-21T14:45:58.772Z,18.60
2023-04-21T14:48:27.573Z,8.40
2023-04-21T14:50:57.991Z,10.40
2023-04-21T14:53:26.033Z,8.20
2023-04-21T14:55:54.812Z,10.80
2023-04-21T14:58:23.447Z,7.70
2023-04-21T15:00:51.389Z,10.20
2023-04-21T15:03:19.718Z,8.50
2023-04-21T15:05:47.657Z,10.40
2023-04-21T15:08:18.342Z,9.30
2023-04-21T15:10:47.733Z,8.80
2023-04-21T15:13:15.674Z,9.40
2023-04-21T15:15:43.437Z,9.20
2023-04-21T15:18:11.298Z,8.60
2023-04-21T15:20:45.160Z,7.60
2023-04-21T15:23:15.031Z,7.70
2023-04-21T15:25:43.430Z,8.10
2023-04-21T15:28:11.333Z,10.50
2023-04-21T15:30:39.536Z,7.40
2023-04-21T15:33:08.252Z,8.90
2023-04-21T15:35:36.485Z,9.90
2023-04-21T15:38:06.251Z,8.50
2023-04-21T15:40:34.121Z,9.70
2023-04-21T15:43:02.381Z,11.70
2023-04-21T15:45:30.200Z,9.80
2023-04-21T15:47:58.470Z,10.70
2023-04-21T15:50:26.336Z,9.00
2023-04-21T15:52:54.235Z,10.30
2023-04-21T15:55:23.071Z,9.40
2023-04-21T15:57:51.336Z,11.80
2023-04-21T16:00:19.330Z,10.10
2023-04-21T16:02:48.932Z,9.40
2023-04-21T16:05:18.716Z,8.10
2023-04-21T16:07:46.652Z,9.30
2023-04-21T16:10:15.044Z,8.30
2023-04-21T16:12:44.648Z,8.40
2023-04-21T16:15:23.591Z,8.60
2023-04-21T16:17:54.072Z,12.40
2023-04-21T16:20:22.622Z,9.50
2023-04-21T16:22:51.023Z,8.70
2023-04-21T16:25:19.614Z,15.90
2023-04-21T16:27:48.305Z,30.80
2023-04-21T16:30:16.416Z,18.40
2023-04-21T16:32:44.802Z,9.20
2023-04-21T16:35:13.321Z,8.60
2023-04-21T16:37:42.905Z,10.10
2023-04-21T16:40:11.651Z,9.40
2023-04-21T16:42:39.642Z,9.50
2023-04-21T16:45:08.447Z,10.90
2023-04-21T16:47:42.299Z,13.30
2023-04-21T16:50:10.832Z,9.30
2023-04-21T16:52:38.716Z,9.30
2023-04-21T16:55:06.872Z,11.90
2023-04-21T16:57:35.267Z,14.80
2023-04-21T17:00:07.151Z,14.10
2023-04-21T17:02:35.301Z,12.80
2023-04-21T17:05:04.170Z,11.90
2023-04-21T17:07:32.192Z,12.30
2023-04-21T17:10:00.186Z,13.80
2023-04-21T17:12:28.436Z,12.50
2023-04-21T17:14:56.781Z,9.90
2023-04-21T17:17:24.764Z,9.70
2023-04-21T17:20:00.980Z,11.60
2023-04-21T17:22:28.981Z,19.30
2023-04-21T17:24:57.553Z,11.80
2023-04-21T17:27:26.485Z,11.90
2023-04-21T17:29:57.033Z,14.00
2023-04-21T17:32:25.173Z,16.60
2023-04-21T17:34:53.685Z,17.90
2023-04-21T17:37:21.942Z,19.30
2023-04-21T17:39:50.333Z,19.80
2023-04-21T17:42:20.934Z,22.60
2023-04-21T17:44:48.917Z,17.80
2023-04-21T17:47:16.836Z,19.90
2023-04-21T17:49:44.716Z,17.70
2023-04-21T17:52:14.152Z,17.80
2023-04-21T17:54:44.495Z,17.60
2023-04-21T17:57:12.861Z,21.50
2023-04-21T17:59:41.095Z,21.40
2023-04-21T18:02:09.107Z,19.70
2023-04-21T18:04:37.750Z,17.80
2023-04-21T18:07:06.706Z,22.00
2023-04-21T18:09:34.929Z,21.30
2023-04-21T18:12:04.126Z,18.60
2023-04-21T18:14:32.473Z,21.60
2023-04-21T18:17:00.861Z,21.30
2023-04-21T18:19:28.655Z,23.10
2023-04-21T18:21:56.614Z,26.90
2023-04-21T18:24:24.834Z,26.90
2023-04-21T18:26:53.360Z,29.10
2023-04-21T18:29:21.330Z,32.80
2023-04-21T18:31:49.313Z,28.00
2023-04-21T18:34:17.313Z,24.00
2023-04-21T18:36:45.191Z,30.80
2023-04-21T18:39:13.463Z,27.90
2023-04-21T18:41:42.051Z,27.70
2023-04-21T18:44:10.020Z,30.40
2023-04-21T18:46:38.216Z,27.80
2023-04-21T18:49:06.086Z,35.60
2023-04-21T18:51:35.031Z,43.00
2023-04-21T18:54:04.968Z,46.70
2023-04-21T18:56:33.411Z,51.20
2023-04-21T18:59:01.347Z,51.90
2023-04-21T19:01:29.361Z,54.70
2023-04-21T19:03:58.519Z,50.20
2023-04-21T19:06:28.295Z,54.50
2023-04-21T19:08:57.784Z,55.80
2023-04-21T19:11:26.437Z,58.30
2023-04-21T19:13:54.571Z,64.30
2023-04-21T19:16:22.596Z,68.60
2023-04-21T19:18:52.288Z,68.00
2023-04-21T19:21:20.373Z,64.10
2023-04-21T19:23:48.678Z,59.90
2023-04-21T19:26:18.498Z,62.00
2023-04-21T19:28:46.720Z,64.10
2023-04-21T19:31:15.651Z,65.40
2023-04-21T19:33:43.486Z,62.00
2023-04-21T19:36:11.470Z,65.90
2023-04-21T19:38:39.751Z,70.70
2023-04-21T19:41:56.870Z,67.10
2023-04-21T19:44:45.372Z,73.20
2023-04-21T19:47:13.646Z,70.30
2023-04-21T19:49:42.035Z,70.80
2023-04-21T19:53:04.371Z,71.20
2023-04-21T19:56:02.575Z,65.00
2023-04-21T19:58:40.205Z,72.50
2023-04-21T20:01:30.399Z,64.40
2023-04-21T20:03:59.956Z,60.00
2023-04-21T20:06:39.314Z,61.70
2023-04-21T20:09:13.585Z,58.90
2023-04-21T20:11:46.012Z,59.30
2023-04-21T20:14:21.723Z,57.30
2023-04-21T20:16:49.502Z,54.40
2023-04-21T20:19:23.540Z,54.80
2023-04-21T20:21:51.814Z,58.60
2023-04-21T20:24:20.184Z,55.60
2023-04-21T20:26:47.993Z,52.20
2023-04-21T20:29:19.189Z,54.40
2023-04-21T20:31:47.065Z,48.80
2023-04-21T20:34:15.001Z,54.00
2023-04-21T20:36:48.042Z,52.70
2023-04-21T20:39:18.501Z,52.70
2023-04-21T20:41:48.037Z,56.90
2023-04-21T20:44:20.902Z,59.50
2023-04-21T20:46:48.854Z,54.90
2023-04-21T20:49:19.848Z,52.20
2023-04-21T20:51:47.574Z,51.70
2023-04-21T20:54:15.787Z,47.40
2023-04-21T20:56:44.199Z,39.60
2023-04-21T20:59:12.358Z,43.40
2023-04-21T21:01:41.512Z,37.30
2023-04-21T21:04:09.538Z,36.40
2023-04-21T21:06:37.950Z,36.50
2023-04-21T21:09:10.155Z,38.60
2023-04-21T21:11:38.492Z,39.90
2023-04-21T21:14:06.533Z,39.50
2023-04-21T21:16:34.464Z,41.50
2023-04-21T21:19:02.393Z,41.40
2023-04-21T21:21:30.953Z,38.10
2023-04-21T21:23:59.365Z,40.80
2023-04-21T21:26:27.851Z,37.10
2023-04-21T21:28:55.678Z,36.00
2023-04-21T21:31:29.563Z,39.30
2023-04-21T21:33:58.510Z,41.80
2023-04-21T21:36:27.996Z,42.00
2023-04-21T21:38:56.370Z,44.30
2023-04-21T21:41:24.363Z,37.30
2023-04-21T21:43:52.743Z,38.40
2023-04-21T21:46:22.304Z,38.40
2023-04-21T21:48:50.953Z,39.60
2023-04-21T21:51:20.460Z,36.80
2023-04-21T21:53:48.327Z,34.50
2023-04-21T21:56:16.252Z,34.10
2023-04-21T21:58:44.124Z,39.00
2023-04-21T22:01:12.114Z,37.60
2023-04-21T22:03:40.793Z,36.60
2023-04-21T22:06:09.422Z,37.00
2023-04-21T22:08:37.965Z,39.80
2023-04-21T22:11:06.001Z,36.90
2023-04-21T22:13:33.977Z,37.40
2023-04-21T22:16:02.510Z,33.40
2023-04-21T22:18:30.380Z,31.00
2023-04-21T22:20:59.156Z,31.40
2023-04-21T22:23:27.072Z,31.50
2023-04-21T22:25:57.784Z,30.00
2023-04-21T22:28:35.542Z,30.40
2023-04-21T22:31:04.034Z,33.10
2023-04-21T22:33:32.124Z,32.90
2023-04-21T22:36:03.205Z,30.90
2023-04-21T22:38:31.187Z,30.70
2023-04-21T22:40:59.424Z,31.40
2023-04-21T22:43:27.390Z,29.20
2023-04-21T22:45:55.786Z,32.90
2023-04-21T22:48:26.263Z,32.40
2023-04-21T22:50:55.613Z,30.60
2023-04-21T22:53:23.955Z,30.30
2023-04-21T22:55:51.873Z,32.50
2023-04-21T22:58:19.851Z,29.70
2023-04-21T23:00:48.319Z,34.10
2023-04-21T23:03:16.455Z,28.50
2023-04-21T23:05:44.474Z,27.90
2023-04-21T23:08:12.293Z,28.40
2023-04-21T23:10:40.630Z,28.30
2023-04-21T23:13:08.510Z,26.40
2023-04-21T23:15:36.805Z,25.60
2023-04-21T23:18:05.732Z,25.30
2023-04-21T23:20:33.978Z,26.60
2023-04-21T23:23:01.935Z,26.90
2023-04-21T23:25:29.942Z,25.80
2023-04-21T23:27:58.701Z,22.80
2023-04-21T23:30:27.425Z,23.90
2023-04-21T23:32:55.443Z,34.00
2023-04-21T23:35:23.486Z,26.60
2023-04-21T23:37:51.431Z,23.50
2023-04-21T23:40:23.767Z,24.80
2023-04-21T23:42:52.335Z,21.20
2023-04-21T23:45:21.394Z,24.90
2023-04-21T23:47:49.295Z,24.50
2023-04-21T23:50:17.276Z,24.60
2023-04-21T23:52:45.502Z,23.50
2023-04-21T23:55:13.528Z,24.80
2023-04-21T23:57:44.642Z,22.70
